createdAt,value
2022-10-05T00:01:35.018Z,5.57
2022-10-05T00:04:15.795Z,7.82
2022-10-05T00:09:18.585Z,8.57
2022-10-05T00:11:46.461Z,8.05
2022-10-05T00:14:30.609Z,8.95
2022-10-05T00:16:58.757Z,9.23
2022-10-05T00:19:34.201Z,7.03
2022-10-05T00:22:13.787Z,10.40
2022-10-05T00:24:41.446Z,5.22
2022-10-05T00:27:21.471Z,7.63
2022-10-05T00:29:50.702Z,2.95
2022-10-05T00:32:18.537Z,10.73
2022-10-05T00:34:46.850Z,3.28
2022-10-05T00:37:14.627Z,7.45
2022-10-05T00:39:42.948Z,6.25
2022-10-05T00:42:29.059Z,6.55
2022-10-05T00:45:03.480Z,4.78
2022-10-05T00:47:46.607Z,8.45
2022-10-05T00:50:35.915Z,9.45
2022-10-05T00:53:34.881Z,6.38
2022-10-05T00:56:09.062Z,7.13
2022-10-05T00:59:00.640Z,10.05
2022-10-05T01:01:48.040Z,8.45
2022-10-05T01:04:27.489Z,5.47
2022-10-05T01:07:19.395Z,5.38
2022-10-05T01:09:55.422Z,6.65
2022-10-05T01:13:02.443Z,4.72
2022-10-05T01:15:36.915Z,4.47
2022-10-05T01:18:33.533Z,5.60
2022-10-05T01:21:14.230Z,5.03
2022-10-05T01:23:56.588Z,7.22
2022-10-05T01:27:02.381Z,5.13
2022-10-05T01:29:38.639Z,6.28
2022-10-05T01:32:26.042Z,5.50
2022-10-05T01:35:08.938Z,8.23
2022-10-05T01:38:15.761Z,5.75
2022-10-05T01:41:26.258Z,5.70
2022-10-05T01:44:11.536Z,8.98
2022-10-05T01:47:06.629Z,8.15
2022-10-05T01:49:40.679Z,5.22
2022-10-05T01:52:34.151Z,8.30
2022-10-05T01:55:40.395Z,6.70
2022-10-05T01:58:27.902Z,6.47
2022-10-05T02:01:06.550Z,4.38
2022-10-05T02:03:59.163Z,6.68
2022-10-05T02:06:32.515Z,5.03
2022-10-05T02:09:22.390Z,5.45
2022-10-05T02:11:59.930Z,6.70
2022-10-05T02:14:42.058Z,6.30
2022-10-05T02:17:17.933Z,6.85
2022-10-05T02:19:51.053Z,7.03
2022-10-05T02:22:28.488Z,12.65
2022-10-05T02:25:09.518Z,8.82
2022-10-05T02:30:12.891Z,8.25
2022-10-05T02:33:10.471Z,7.95
2022-10-05T02:35:38.627Z,7.50
2022-10-05T02:38:26.918Z,8.52
2022-10-05T02:41:38.310Z,7.30
2022-10-05T02:44:24.811Z,6.60
2022-10-05T02:47:10.695Z,7.72
2022-10-05T02:49:55.917Z,7.50
2022-10-05T02:52:50.901Z,12.50
2022-10-05T02:55:45.602Z,5.90
2022-10-05T02:58:45.505Z,6.78
2022-10-05T03:01:20.034Z,8.68
2022-10-05T03:04:20.554Z,4.72
2022-10-05T03:07:13.574Z,7.00
2022-10-05T03:10:09.805Z,5.72
2022-10-05T03:12:58.889Z,4.07
2022-10-05T03:15:55.170Z,7.53
2022-10-05T03:18:53.983Z,6.72
2022-10-05T03:21:47.130Z,6.80
2022-10-05T03:24:42.460Z,9.55
2022-10-05T03:27:44.061Z,6.25
2022-10-05T03:30:21.969Z,9.70
2022-10-05T03:33:13.173Z,5.53
2022-10-05T03:35:56.507Z,5.97
2022-10-05T03:38:47.756Z,6.00
2022-10-05T03:41:30.477Z,12.98
2022-10-05T03:44:23.185Z,8.00
2022-10-05T03:47:21.086Z,8.13
2022-10-05T03:49:52.208Z,11.82
2022-10-05T03:52:41.490Z,5.53
2022-10-05T03:55:23.961Z,7.57
2022-10-05T03:57:56.915Z,8.50
2022-10-05T04:00:25.605Z,6.47
2022-10-05T04:03:01.967Z,11.02
2022-10-05T04:05:43.493Z,8.35
2022-10-05T04:08:40.599Z,7.00
2022-10-05T04:11:16.861Z,10.27
2022-10-05T04:13:54.284Z,8.75
2022-10-05T04:16:45.764Z,7.85
2022-10-05T04:19:34.358Z,8.10
2022-10-05T04:22:20.709Z,5.93
2022-10-05T04:25:14.372Z,12.95
2022-10-05T04:27:47.242Z,11.15
2022-10-05T04:30:24.475Z,6.00
2022-10-05T04:33:00.544Z,8.93
2022-10-05T04:35:47.476Z,10.98
2022-10-05T04:38:40.016Z,7.65
2022-10-05T04:41:30.597Z,7.95
2022-10-05T04:44:37.059Z,9.80
2022-10-05T04:47:17.713Z,13.68
2022-10-05T04:50:10.639Z,6.43
2022-10-05T04:53:05.053Z,6.25
2022-10-05T04:56:02.616Z,11.02
2022-10-05T04:58:49.758Z,10.20
2022-10-05T05:01:26.657Z,7.60
2022-10-05T05:03:54.125Z,10.85
2022-10-05T05:07:00.431Z,13.13
2022-10-05T05:10:06.815Z,8.50
2022-10-05T05:12:55.211Z,8.20
2022-10-05T05:15:58.374Z,15.02
2022-10-05T05:18:47.998Z,8.27
2022-10-05T05:21:38.033Z,10.32
2022-10-05T05:24:24.134Z,15.98
2022-10-05T05:27:29.632Z,10.27
2022-10-05T05:30:22.404Z,8.63
2022-10-05T05:33:15.379Z,5.68
2022-10-05T05:35:57.830Z,7.85
2022-10-05T05:38:44.660Z,8.48
2022-10-05T05:41:31.055Z,8.30
2022-10-05T05:44:06.330Z,9.70
2022-10-05T05:47:03.085Z,8.00
2022-10-05T05:50:15.333Z,9.20
2022-10-05T05:52:49.219Z,14.50
2022-10-05T05:55:49.562Z,9.35
2022-10-05T05:58:16.974Z,8.75
2022-10-05T06:00:58.531Z,10.82
2022-10-05T06:03:43.795Z,8.48
2022-10-05T06:06:17.590Z,4.78
2022-10-05T06:08:58.385Z,7.13
2022-10-05T06:11:54.510Z,10.10
2022-10-05T06:14:52.210Z,10.85
2022-10-05T06:17:48.655Z,7.50
2022-10-05T06:20:30.778Z,13.68
2022-10-05T06:23:04.769Z,13.60
2022-10-05T06:25:53.247Z,9.02
2022-10-05T06:28:21.142Z,7.90
2022-10-05T06:31:01.794Z,8.93
2022-10-05T06:33:54.506Z,10.05
2022-10-05T06:36:35.113Z,9.88
2022-10-05T06:39:41.394Z,6.88
2022-10-05T06:42:15.337Z,7.45
2022-10-05T06:45:30.806Z,4.50
2022-10-05T06:48:28.697Z,7.05
2022-10-05T06:51:18.666Z,6.53
2022-10-05T06:54:15.983Z,8.85
2022-10-05T06:57:08.824Z,7.22
2022-10-05T06:59:45.398Z,10.50
2022-10-05T07:02:19.222Z,8.10
2022-10-05T07:04:49.885Z,15.75
2022-10-05T07:07:26.274Z,5.32
2022-10-05T07:10:24.244Z,8.88
2022-10-05T07:13:28.126Z,8.80
2022-10-05T07:16:12.963Z,8.55
2022-10-05T07:18:49.611Z,6.28
2022-10-05T07:21:27.271Z,5.32
2022-10-05T07:24:22.586Z,8.55
2022-10-05T07:27:12.777Z,10.95
2022-10-05T07:29:56.499Z,6.72
2022-10-05T07:32:29.784Z,9.18
2022-10-05T07:35:09.971Z,9.80
2022-10-05T07:37:57.754Z,7.63
2022-10-05T07:40:41.916Z,6.38
2022-10-05T07:44:00.562Z,5.47
2022-10-05T07:46:37.382Z,5.25
2022-10-05T07:49:12.249Z,7.13
2022-10-05T07:51:49.679Z,5.00
2022-10-05T07:54:36.035Z,6.60
2022-10-05T07:57:18.753Z,8.25
2022-10-05T07:59:56.751Z,6.20
2022-10-05T08:02:44.564Z,9.50
2022-10-05T08:05:31.416Z,11.98
2022-10-05T08:08:01.883Z,10.05
2022-10-05T08:10:41.777Z,7.35
2022-10-05T08:13:15.353Z,9.38
2022-10-05T08:15:48.419Z,11.85
2022-10-05T08:18:40.378Z,6.40
2022-10-05T08:21:12.103Z,7.95
2022-10-05T08:23:58.305Z,7.78
2022-10-05T08:26:46.921Z,11.13
2022-10-05T08:29:36.732Z,7.45
2022-10-05T08:32:12.634Z,9.32
2022-10-05T08:34:47.812Z,8.80
2022-10-05T08:37:28.963Z,8.48
2022-10-05T08:40:33.785Z,12.43
2022-10-05T08:43:16.639Z,10.63
2022-10-05T08:46:03.041Z,10.63
2022-10-05T08:48:48.278Z,8.57
2022-10-05T08:51:47.083Z,9.57
2022-10-05T08:54:36.856Z,8.90
2022-10-05T08:57:32.090Z,7.47
2022-10-05T09:00:05.320Z,10.18
2022-10-05T09:02:53.944Z,6.70
2022-10-05T09:05:42.048Z,9.75
2022-10-05T09:08:52.681Z,15.48
2022-10-05T09:11:31.803Z,16.77
2022-10-05T09:14:28.232Z,11.23
2022-10-05T09:17:01.504Z,16.48
2022-10-05T09:20:00.040Z,12.40
2022-10-05T09:23:08.037Z,7.75
2022-10-05T09:25:43.800Z,9.88
2022-10-05T09:28:37.753Z,8.75
2022-10-05T09:32:00.703Z,6.68
2022-10-05T09:34:55.780Z,9.95
2022-10-05T09:38:00.987Z,14.50
2022-10-05T09:40:44.645Z,9.98
2022-10-05T09:43:44.315Z,9.27
2022-10-05T09:46:14.634Z,7.97
2022-10-05T09:48:55.489Z,10.30
2022-10-05T09:51:41.440Z,7.70
2022-10-05T09:54:29.615Z,13.02
2022-10-05T09:57:18.742Z,9.68
2022-10-05T10:00:09.115Z,12.80
2022-10-05T10:02:58.338Z,13.02
2022-10-05T10:05:50.168Z,16.17
2022-10-05T10:08:20.808Z,14.57
2022-10-05T10:11:10.267Z,13.50
2022-10-05T10:14:04.893Z,11.90
2022-10-05T10:16:53.639Z,9.18
2022-10-05T10:19:51.350Z,11.43
2022-10-05T10:22:43.470Z,12.30
2022-10-05T10:25:52.691Z,9.80
2022-10-05T10:29:09.080Z,12.82
2022-10-05T10:32:15.777Z,13.32
2022-10-05T10:35:04.412Z,11.38
2022-10-05T10:37:57.795Z,9.32
2022-10-05T10:40:44.557Z,13.15
2022-10-05T10:43:29.470Z,13.00
2022-10-05T10:46:07.373Z,12.00
2022-10-05T10:48:38.114Z,10.75
2022-10-05T10:54:03.769Z,9.65
2022-10-05T10:56:56.356Z,13.00
2022-10-05T10:59:55.080Z,14.32
2022-10-05T11:02:37.317Z,10.63
2022-10-05T11:05:16.796Z,12.57
2022-10-05T11:07:59.147Z,8.68
2022-10-05T11:11:04.562Z,14.68
2022-10-05T11:14:02.714Z,15.32
2022-10-05T11:16:39.149Z,11.48
2022-10-05T11:19:15.483Z,15.52
2022-10-05T11:22:07.440Z,15.85
2022-10-05T11:24:43.991Z,12.27
2022-10-05T11:27:17.126Z,10.75
2022-10-05T11:30:11.416Z,13.80
2022-10-05T11:33:00.536Z,13.98
2022-10-05T11:35:34.214Z,15.57
2022-10-05T11:38:20.618Z,11.75
2022-10-05T11:41:15.192Z,12.57
2022-10-05T11:44:24.981Z,11.90
2022-10-05T11:47:12.102Z,13.23
2022-10-05T11:49:53.650Z,14.50
2022-10-05T11:52:38.549Z,12.85
2022-10-05T11:55:20.863Z,11.00
2022-10-05T11:58:22.114Z,10.55
2022-10-05T12:00:57.989Z,13.40
2022-10-05T12:03:51.043Z,12.98
2022-10-05T12:06:39.440Z,5.88
2022-10-05T12:09:26.743Z,13.18
2022-10-05T12:12:16.477Z,10.15
2022-10-05T12:14:56.939Z,11.15
2022-10-05T12:17:27.364Z,12.77
2022-10-05T12:20:16.284Z,9.20
2022-10-05T12:23:02.321Z,10.10
2022-10-05T12:25:50.459Z,7.03
2022-10-05T12:28:23.612Z,10.07
2022-10-05T12:31:07.775Z,15.05
2022-10-05T12:33:56.306Z,8.98
2022-10-05T12:36:36.051Z,9.07
2022-10-05T12:39:42.150Z,12.33
2022-10-05T12:42:41.752Z,13.15
2022-10-05T12:45:43.613Z,12.82
2022-10-05T12:48:32.304Z,5.57
2022-10-05T12:51:14.734Z,14.10
2022-10-05T12:53:57.000Z,7.68
2022-10-05T12:56:48.066Z,9.48
2022-10-05T12:59:27.505Z,11.35
2022-10-05T13:02:30.926Z,12.48
2022-10-05T13:05:10.708Z,14.10
2022-10-05T13:08:00.187Z,13.35
2022-10-05T13:10:36.637Z,11.20
2022-10-05T13:13:36.370Z,15.02
2022-10-05T13:16:31.288Z,14.38
2022-10-05T13:19:04.754Z,14.23
2022-10-05T13:21:52.074Z,12.38
2022-10-05T13:24:29.769Z,15.75
2022-10-05T13:27:14.223Z,19.73
2022-10-05T13:29:54.320Z,18.48
2022-10-05T13:32:39.215Z,22.35
2022-10-05T13:35:56.151Z,23.42
2022-10-05T13:38:56.933Z,18.02
2022-10-05T13:41:50.050Z,19.63
2022-10-05T13:44:38.573Z,17.08
2022-10-05T13:47:11.973Z,17.00
2022-10-05T13:49:49.537Z,17.05
2022-10-05T13:52:44.563Z,12.77
2022-10-05T13:55:35.088Z,12.02
2022-10-05T13:58:05.946Z,19.27
2022-10-05T14:00:43.765Z,10.10
2022-10-05T14:03:24.831Z,15.52
2022-10-05T14:05:57.452Z,15.90
2022-10-05T14:08:32.861Z,11.32
2022-10-05T14:11:19.763Z,11.27
2022-10-05T14:13:48.987Z,7.65
2022-10-05T14:16:26.231Z,9.38
2022-10-05T14:19:04.775Z,7.93
2022-10-05T14:21:43.975Z,7.60
2022-10-05T14:24:43.771Z,4.20
2022-10-05T14:27:27.040Z,3.92
2022-10-05T14:30:20.275Z,5.25
2022-10-05T14:33:05.914Z,4.00
2022-10-05T14:35:51.891Z,1.85
2022-10-05T14:38:21.459Z,5.38
2022-10-05T14:41:07.739Z,2.35
2022-10-05T14:43:35.618Z,3.03
2022-10-05T14:46:25.415Z,2.17
2022-10-05T14:49:14.353Z,3.17
2022-10-05T14:51:42.813Z,1.83
2022-10-05T14:54:30.361Z,4.50
2022-10-05T14:57:15.346Z,7.25
2022-10-05T14:59:46.864Z,1.10
2022-10-05T15:02:52.473Z,2.10
2022-10-05T15:05:53.634Z,2.08
2022-10-05T15:11:03.263Z,2.75
2022-10-05T15:13:41.546Z,2.72
2022-10-05T15:16:31.021Z,2.50
2022-10-05T15:19:07.365Z,2.92
2022-10-05T15:22:02.689Z,1.98
2022-10-05T15:24:43.626Z,1.75
2022-10-05T15:27:54.017Z,2.00
2022-10-05T15:30:22.261Z,4.13
2022-10-05T15:33:08.933Z,3.53
2022-10-05T15:35:45.646Z,2.67
2022-10-05T15:38:21.946Z,2.05
2022-10-05T15:41:02.561Z,1.25
2022-10-05T15:43:47.391Z,2.47
2022-10-05T15:46:41.422Z,1.35
2022-10-05T15:49:23.762Z,1.40
2022-10-05T15:52:01.836Z,4.47
2022-10-05T15:55:01.107Z,1.65
2022-10-05T15:57:41.645Z,1.70
2022-10-05T16:00:13.746Z,1.23
2022-10-05T16:03:08.693Z,3.65
2022-10-05T16:06:12.840Z,1.35
2022-10-05T16:09:21.556Z,4.20
2022-10-05T16:12:09.620Z,4.25
2022-10-05T16:14:54.492Z,3.78
2022-10-05T16:17:29.828Z,5.13
2022-10-05T16:20:09.044Z,3.00
2022-10-05T16:23:13.834Z,4.78
2022-10-05T16:25:59.197Z,2.47
2022-10-05T16:28:47.420Z,3.97
2022-10-05T16:31:37.167Z,2.35
2022-10-05T16:34:33.341Z,1.85
2022-10-05T16:37:20.426Z,3.35
2022-10-05T16:40:23.163Z,3.60
2022-10-05T16:43:33.778Z,8.18
2022-10-05T16:46:10.587Z,5.70
2022-10-05T16:49:07.483Z,5.68
2022-10-05T16:51:56.261Z,2.40
2022-10-05T16:54:37.213Z,4.93
2022-10-05T16:57:23.595Z,5.68
2022-10-05T17:00:08.906Z,2.47
2022-10-05T17:02:46.017Z,7.45
2022-10-05T17:05:34.890Z,6.75
2022-10-05T17:08:31.686Z,3.42
2022-10-05T17:11:05.400Z,5.22
2022-10-05T17:14:06.641Z,2.40
2022-10-05T17:19:56.062Z,4.82
2022-10-05T17:22:34.425Z,4.28
2022-10-05T17:25:11.620Z,3.63
2022-10-05T17:28:15.014Z,3.83
2022-10-05T17:30:54.461Z,5.85
2022-10-05T17:33:31.672Z,8.10
2022-10-05T17:36:08.367Z,10.07
2022-10-05T17:38:52.887Z,4.47
2022-10-05T17:41:30.248Z,4.05
2022-10-05T17:44:20.991Z,6.28
2022-10-05T17:46:59.068Z,6.63
2022-10-05T17:49:44.060Z,7.20
2022-10-05T17:52:40.131Z,4.57
2022-10-05T17:55:44.087Z,3.30
2022-10-05T17:58:54.734Z,8.77
2022-10-05T18:01:37.120Z,6.35
2022-10-05T18:04:13.515Z,6.00
2022-10-05T18:06:48.121Z,9.30
2022-10-05T18:09:20.902Z,9.98
2022-10-05T18:12:09.313Z,5.20
2022-10-05T18:15:00.052Z,9.60
2022-10-05T18:17:36.914Z,7.50
2022-10-05T18:20:15.201Z,7.22
2022-10-05T18:22:46.261Z,8.07
2022-10-05T18:25:38.245Z,7.05
2022-10-05T18:28:39.088Z,7.05
2022-10-05T18:31:29.881Z,7.40
2022-10-05T18:33:57.385Z,8.75
2022-10-05T18:36:39.083Z,5.90
2022-10-05T18:39:35.862Z,11.07
2022-10-05T18:42:36.038Z,6.13
2022-10-05T18:45:17.268Z,7.80
2022-10-05T18:47:48.133Z,6.00
2022-10-05T18:50:32.309Z,10.93
2022-10-05T18:53:27.162Z,5.72
2022-10-05T18:56:32.159Z,9.75
2022-10-05T18:59:44.598Z,11.65
2022-10-05T19:02:34.760Z,9.50
2022-10-05T19:05:45.783Z,10.90
2022-10-05T19:08:14.346Z,11.57
2022-10-05T19:10:52.900Z,5.75
2022-10-05T19:13:39.065Z,10.55
2022-10-05T19:16:28.513Z,10.57
2022-10-05T19:19:09.731Z,10.10
2022-10-05T19:21:59.037Z,10.73
2022-10-05T19:25:01.871Z,9.73
2022-10-05T19:27:55.065Z,10.80
2022-10-05T19:30:45.425Z,12.20
2022-10-05T19:33:48.264Z,10.90
2022-10-05T19:36:18.694Z,15.27
2022-10-05T19:39:16.939Z,17.85
2022-10-05T19:41:53.411Z,10.25
2022-10-05T19:44:50.410Z,12.90
2022-10-05T19:47:24.101Z,11.30
2022-10-05T19:49:55.350Z,13.98
2022-10-05T19:52:28.454Z,11.23
2022-10-05T19:55:24.355Z,11.52
2022-10-05T19:57:54.559Z,13.32
2022-10-05T20:00:27.024Z,12.47
2022-10-05T20:03:27.815Z,14.07
2022-10-05T20:06:06.770Z,12.95
2022-10-05T20:08:46.784Z,16.70
2022-10-05T20:11:22.915Z,15.40
2022-10-05T20:13:54.943Z,13.55
2022-10-05T20:19:49.673Z,17.90
2022-10-05T20:22:23.036Z,15.73
2022-10-05T20:24:52.384Z,17.25
2022-10-05T20:27:51.100Z,17.60
2022-10-05T20:30:24.802Z,16.17
2022-10-05T20:32:58.107Z,18.45
2022-10-05T20:35:30.412Z,15.25
2022-10-05T20:38:00.214Z,16.20
2022-10-05T20:40:30.122Z,16.83
2022-10-05T20:42:58.920Z,12.13
2022-10-05T20:45:26.594Z,18.13
2022-10-05T20:47:54.133Z,17.23
2022-10-05T20:50:22.515Z,19.08
2022-10-05T20:52:50.160Z,16.73
2022-10-05T20:55:17.888Z,22.15
2022-10-05T20:57:46.155Z,13.75
2022-10-05T21:00:14.098Z,20.02
2022-10-05T21:02:41.827Z,17.27
2022-10-05T21:05:09.780Z,14.40
2022-10-05T21:07:37.418Z,13.02
2022-10-05T21:10:05.464Z,16.70
2022-10-05T21:12:42.097Z,17.50
2022-10-05T21:15:10.365Z,24.30
2022-10-05T21:17:38.812Z,22.13
2022-10-05T21:20:06.511Z,21.27
2022-10-05T21:22:36.411Z,23.20
2022-10-05T21:25:04.409Z,20.67
2022-10-05T21:27:32.695Z,14.25
2022-10-05T21:30:00.780Z,20.00
2022-10-05T21:32:28.389Z,15.38
2022-10-05T21:34:57.258Z,23.50
2022-10-05T21:37:24.852Z,18.08
2022-10-05T21:39:52.328Z,15.80
2022-10-05T21:42:19.789Z,26.38
2022-10-05T21:44:47.374Z,11.52
2022-10-05T21:47:15.077Z,19.00
2022-10-05T21:49:42.815Z,23.83
2022-10-05T21:52:10.609Z,25.25
2022-10-05T21:54:38.456Z,25.23
2022-10-05T21:57:06.546Z,16.08
2022-10-05T21:59:35.122Z,16.65
2022-10-05T22:02:03.517Z,17.27
2022-10-05T22:04:31.047Z,20.20
2022-10-05T22:06:58.684Z,18.90
2022-10-05T22:09:26.261Z,28.92
2022-10-05T22:11:54.825Z,15.45
2022-10-05T22:14:22.515Z,11.27
2022-10-05T22:16:50.231Z,15.38
2022-10-05T22:19:19.958Z,28.55
2022-10-05T22:21:47.678Z,18.63
2022-10-05T22:24:15.111Z,12.82
2022-10-05T22:26:46.317Z,22.25
2022-10-05T22:29:16.272Z,20.67
2022-10-05T22:31:46.298Z,16.25
2022-10-05T22:34:14.089Z,16.87
2022-10-05T22:36:41.881Z,25.45
2022-10-05T22:39:09.425Z,17.45
2022-10-05T22:41:36.906Z,20.02
2022-10-05T22:44:04.531Z,19.08
2022-10-05T22:46:32.573Z,17.23
2022-10-05T22:49:00.243Z,18.27
2022-10-05T22:51:28.602Z,16.98
2022-10-05T22:53:56.074Z,19.30
2022-10-05T22:56:24.093Z,27.50
2022-10-05T22:58:51.959Z,18.85
2022-10-05T23:01:20.214Z,16.02
2022-10-05T23:03:47.773Z,20.05
2022-10-05T23:06:18.621Z,22.00
2022-10-05T23:08:46.998Z,18.30
2022-10-05T23:11:17.594Z,17.13
2022-10-05T23:13:45.320Z,12.20
2022-10-05T23:16:18.946Z,19.75
2022-10-05T23:18:51.538Z,15.32
2022-10-05T23:21:21.013Z,19.73
2022-10-05T23:23:51.149Z,16.88
2022-10-05T23:26:23.605Z,16.60
2022-10-05T23:28:51.671Z,14.05
2022-10-05T23:31:22.194Z,22.33
2022-10-05T23:33:50.128Z,26.85
2022-10-05T23:36:20.161Z,20.25
2022-10-05T23:38:48.242Z,22.73
2022-10-05T23:41:17.016Z,19.20
2022-10-05T23:43:44.654Z,19.70
2022-10-05T23:46:13.375Z,29.38
2022-10-05T23:48:41.061Z,21.10
2022-10-05T23:51:13.638Z,20.85
2022-10-05T23:53:41.226Z,18.58
2022-10-05T23:56:08.798Z,16.67
2022-10-05T23:58:36.426Z,15.30
